sensor_id;sensor_type;location;lat;lon;timestamp;pressure;altitude;pressure_sealevel;temperature
12126;BMP180;6126;57.908;16.490;2023-05-20T00:00:37;103103.78;;;5.11
12126;BMP180;6126;57.908;16.490;2023-05-20T00:03:03;103106.22;;;5.01
12126;BMP180;6126;57.908;16.490;2023-05-20T00:05:29;103107.03;;;4.98
12126;BMP180;6126;57.908;16.490;2023-05-20T00:07:55;103112.16;;;4.95
12126;BMP180;6126;57.908;16.490;2023-05-20T00:10:21;103119.03;;;4.92
12126;BMP180;6126;57.908;16.490;2023-05-20T00:12:47;103115.44;;;4.86
12126;BMP180;6126;57.908;16.490;2023-05-20T00:15:13;103122.31;;;4.81
12126;BMP180;6126;57.908;16.490;2023-05-20T00:17:39;103120.50;;;4.77
12126;BMP180;6126;57.908;16.490;2023-05-20T00:20:06;103130.81;;;4.74
12126;BMP180;6126;57.908;16.490;2023-05-20T00:22:32;103135.13;;;4.73
12126;BMP180;6126;57.908;16.490;2023-05-20T00:24:58;103134.25;;;4.73
12126;BMP180;6126;57.908;16.490;2023-05-20T00:27:24;103135.84;;;4.65
12126;BMP180;6126;57.908;16.490;2023-05-20T00:29:50;103128.72;;;4.55
12126;BMP180;6126;57.908;16.490;2023-05-20T00:32:16;103137.31;;;4.53
12126;BMP180;6126;57.908;16.490;2023-05-20T00:34:42;103138.09;;;4.49
12126;BMP180;6126;57.908;16.490;2023-05-20T00:37:10;103127.66;;;4.46
12126;BMP180;6126;57.908;16.490;2023-05-20T00:39:35;103127.56;;;4.41
12126;BMP180;6126;57.908;16.490;2023-05-20T00:42:01;103130.13;;;4.38
12126;BMP180;6126;57.908;16.490;2023-05-20T00:44:28;103141.31;;;4.37
12126;BMP180;6126;57.908;16.490;2023-05-20T00:46:54;103142.09;;;4.32
12126;BMP180;6126;57.908;16.490;2023-05-20T00:49:21;103141.16;;;4.30
12126;BMP180;6126;57.908;16.490;2023-05-20T00:51:48;103135.13;;;4.29
12126;BMP180;6126;57.908;16.490;2023-05-20T00:54:14;103135.13;;;4.29
12126;BMP180;6126;57.908;16.490;2023-05-20T00:56:41;103133.44;;;4.31
12126;BMP180;6126;57.908;16.490;2023-05-20T00:59:08;103134.31;;;4.33
12126;BMP180;6126;57.908;16.490;2023-05-20T01:01:34;103137.00;;;4.36
12126;BMP180;6126;57.908;16.490;2023-05-20T01:04:00;103142.25;;;4.39
12126;BMP180;6126;57.908;16.490;2023-05-20T01:06:26;103139.69;;;4.42
12126;BMP180;6126;57.908;16.490;2023-05-20T01:08:52;103144.97;;;4.47
12126;BMP180;6126;57.908;16.490;2023-05-20T01:11:37;103155.28;;;4.45
12126;BMP180;6126;57.908;16.490;2023-05-20T01:14:07;103160.31;;;4.36
12126;BMP180;6126;57.908;16.490;2023-05-20T01:16:38;103167.91;;;4.29
12126;BMP180;6126;57.908;16.490;2023-05-20T01:19:26;103163.41;;;4.21
12126;BMP180;6126;57.908;16.490;2023-05-20T01:22:02;103162.47;;;4.17
12126;BMP180;6126;57.908;16.490;2023-05-20T01:24:30;103176.22;;;4.13
12126;BMP180;6126;57.908;16.490;2023-05-20T01:26:56;103170.94;;;4.09
12126;BMP180;6126;57.908;16.490;2023-05-20T01:29:24;103163.94;;;4.05
12126;BMP180;6126;57.908;16.490;2023-05-20T01:31:52;103174.25;;;4.03
12126;BMP180;6126;57.908;16.490;2023-05-20T01:34:19;103169.88;;;4.01
12126;BMP180;6126;57.908;16.490;2023-05-20T01:36:46;103177.59;;;3.98
12126;BMP180;6126;57.908;16.490;2023-05-20T01:39:13;103184.44;;;3.96
12126;BMP180;6126;57.908;16.490;2023-05-20T01:41:40;103168.00;;;3.93
12126;BMP180;6126;57.908;16.490;2023-05-20T01:44:06;103171.41;;;3.92
12126;BMP180;6126;57.908;16.490;2023-05-20T01:46:33;103168.84;;;3.93
12126;BMP180;6126;57.908;16.490;2023-05-20T01:48:59;103163.63;;;3.90
12126;BMP180;6126;57.908;16.490;2023-05-20T01:51:25;103168.72;;;3.87
12126;BMP180;6126;57.908;16.490;2023-05-20T01:53:51;103168.63;;;3.84
12126;BMP180;6126;57.908;16.490;2023-05-20T01:56:17;103172.00;;;3.80
12126;BMP180;6126;57.908;16.490;2023-05-20T01:58:43;103172.81;;;3.78
12126;BMP180;6126;57.908;16.490;2023-05-20T02:01:09;103181.34;;;3.74
12126;BMP180;6126;57.908;16.490;2023-05-20T02:03:34;103174.31;;;3.68
12126;BMP180;6126;57.908;16.490;2023-05-20T02:06:00;103186.06;;;3.55
12126;BMP180;6126;57.908;16.490;2023-05-20T02:08:26;103185.00;;;3.47
12126;BMP180;6126;57.908;16.490;2023-05-20T02:10:52;103188.28;;;3.40
12126;BMP180;6126;57.908;16.490;2023-05-20T02:13:18;103186.50;;;3.37
12126;BMP180;6126;57.908;16.490;2023-05-20T02:15:44;103185.56;;;3.34
12126;BMP180;6126;57.908;16.490;2023-05-20T02:18:10;103197.59;;;3.34
12126;BMP180;6126;57.908;16.490;2023-05-20T02:20:37;103184.69;;;3.34
12126;BMP180;6126;57.908;16.490;2023-05-20T02:23:03;103180.38;;;3.34
12126;BMP180;6126;57.908;16.490;2023-05-20T02:25:31;103187.34;;;3.37
12126;BMP180;6126;57.908;16.490;2023-05-20T02:27:57;103176.28;;;3.42
12126;BMP180;6126;57.908;16.490;2023-05-20T02:30:23;103191.97;;;3.49
12126;BMP180;6126;57.908;16.490;2023-05-20T02:32:48;103185.22;;;3.56
12126;BMP180;6126;57.908;16.490;2023-05-20T02:35:14;103176.69;;;3.60
12126;BMP180;6126;57.908;16.490;2023-05-20T02:37:41;103176.81;;;3.64
12126;BMP180;6126;57.908;16.490;2023-05-20T02:40:09;103182.00;;;3.66
12126;BMP180;6126;57.908;16.490;2023-05-20T02:42:35;103183.53;;;3.58
12126;BMP180;6126;57.908;16.490;2023-05-20T02:45:01;103184.25;;;3.51
12126;BMP180;6126;57.908;16.490;2023-05-20T02:47:27;103178.91;;;3.45
12126;BMP180;6126;57.908;16.490;2023-05-20T02:49:53;103188.25;;;3.38
12126;BMP180;6126;57.908;16.490;2023-05-20T02:52:19;103188.06;;;3.31
12126;BMP180;6126;57.908;16.490;2023-05-20T02:54:45;103188.88;;;3.29
12126;BMP180;6126;57.908;16.490;2023-05-20T02:57:11;103185.28;;;3.24
12126;BMP180;6126;57.908;16.490;2023-05-20T02:59:37;103192.06;;;3.19
12126;BMP180;6126;57.908;16.490;2023-05-20T03:02:03;103192.91;;;3.18
12126;BMP180;6126;57.908;16.490;2023-05-20T03:04:29;103195.56;;;3.21
12126;BMP180;6126;57.908;16.490;2023-05-20T03:06:56;103193.19;;;3.30
12126;BMP180;6126;57.908;16.490;2023-05-20T03:09:23;103189.97;;;3.38
12126;BMP180;6126;57.908;16.490;2023-05-20T03:11:49;103182.38;;;3.45
12126;BMP180;6126;57.908;16.490;2023-05-20T03:14:15;103175.69;;;3.53
12126;BMP180;6126;57.908;16.490;2023-05-20T03:16:41;103181.00;;;3.59
12126;BMP180;6126;57.908;16.490;2023-05-20T03:19:07;103183.72;;;3.64
12126;BMP180;6126;57.908;16.490;2023-05-20T03:21:33;103186.44;;;3.69
12126;BMP180;6126;57.908;16.490;2023-05-20T03:23:59;103185.69;;;3.76
12126;BMP180;6126;57.908;16.490;2023-05-20T03:26:25;103197.94;;;3.83
12126;BMP180;6126;57.908;16.490;2023-05-20T03:28:51;103185.94;;;3.87
12126;BMP180;6126;57.908;16.490;2023-05-20T03:31:17;103188.69;;;3.93
12126;BMP180;6126;57.908;16.490;2023-05-20T03:33:43;103199.22;;;4.01
12126;BMP180;6126;57.908;16.490;2023-05-20T03:36:10;103208.88;;;4.08
12126;BMP180;6126;57.908;16.490;2023-05-20T03:38:36;103204.69;;;4.15
12126;BMP180;6126;57.908;16.490;2023-05-20T03:41:02;103200.50;;;4.20
12126;BMP180;6126;57.908;16.490;2023-05-20T03:43:28;103211.88;;;4.26
12126;BMP180;6126;57.908;16.490;2023-05-20T03:45:54;103209.50;;;4.36
12126;BMP180;6126;57.908;16.490;2023-05-20T03:48:19;103211.34;;;4.43
12126;BMP180;6126;57.908;16.490;2023-05-20T03:50:45;103213.34;;;4.56
12126;BMP180;6126;57.908;16.490;2023-05-20T03:53:11;103221.31;;;4.65
12126;BMP180;6126;57.908;16.490;2023-05-20T03:55:37;103212.84;;;4.73
12126;BMP180;6126;57.908;16.490;2023-05-20T03:58:04;103220.75;;;4.81
12126;BMP180;6126;57.908;16.490;2023-05-20T04:00:29;103214.88;;;4.89
12126;BMP180;6126;57.908;16.490;2023-05-20T04:02:57;103215.88;;;4.98
12126;BMP180;6126;57.908;16.490;2023-05-20T04:05:23;103217.75;;;5.05
12126;BMP180;6126;57.908;16.490;2023-05-20T04:07:49;103214.50;;;5.15
12126;BMP180;6126;57.908;16.490;2023-05-20T04:10:18;103222.53;;;5.30
12126;BMP180;6126;57.908;16.490;2023-05-20T04:12:45;103216.75;;;5.46
12126;BMP180;6126;57.908;16.490;2023-05-20T04:15:11;103203.19;;;5.61
12126;BMP180;6126;57.908;16.490;2023-05-20T04:17:37;103206.06;;;5.79
12126;BMP180;6126;57.908;16.490;2023-05-20T04:20:06;103202.84;;;5.93
12126;BMP180;6126;57.908;16.490;2023-05-20T04:22:33;103195.25;;;6.10
12126;BMP180;6126;57.908;16.490;2023-05-20T04:24:59;103202.44;;;6.28
12126;BMP180;6126;57.908;16.490;2023-05-20T04:27:27;103201.03;;;6.54
12126;BMP180;6126;57.908;16.490;2023-05-20T04:29:54;103201.34;;;6.79
12126;BMP180;6126;57.908;16.490;2023-05-20T04:32:20;103196.38;;;7.03
12126;BMP180;6126;57.908;16.490;2023-05-20T04:34:46;103186.38;;;7.45
12126;BMP180;6126;57.908;16.490;2023-05-20T04:37:13;103183.25;;;7.97
12126;BMP180;6126;57.908;16.490;2023-05-20T04:39:39;103194.00;;;8.61
12126;BMP180;6126;57.908;16.490;2023-05-20T04:42:05;103172.38;;;9.17
12126;BMP180;6126;57.908;16.490;2023-05-20T04:44:31;103175.84;;;9.53
12126;BMP180;6126;57.908;16.490;2023-05-20T04:46:57;103173.22;;;9.97
12126;BMP180;6126;57.908;16.490;2023-05-20T04:49:24;103164.44;;;10.12
12126;BMP180;6126;57.908;16.490;2023-05-20T04:51:56;103162.69;;;10.12
12126;BMP180;6126;57.908;16.490;2023-05-20T04:54:23;103152.22;;;10.15
12126;BMP180;6126;57.908;16.490;2023-05-20T04:56:49;103160.97;;;10.07
12126;BMP180;6126;57.908;16.490;2023-05-20T04:59:16;103167.97;;;10.02
12126;BMP180;6126;57.908;16.490;2023-05-20T05:01:42;103176.66;;;10.08
12126;BMP180;6126;57.908;16.490;2023-05-20T05:04:07;103176.63;;;10.14
12126;BMP180;6126;57.908;16.490;2023-05-20T05:06:33;103167.06;;;10.15
12126;BMP180;6126;57.908;16.490;2023-05-20T05:08:59;103177.50;;;10.16
12126;BMP180;6126;57.908;16.490;2023-05-20T05:11:25;103177.50;;;10.17
12126;BMP180;6126;57.908;16.490;2023-05-20T05:13:51;103176.63;;;10.14
12126;BMP180;6126;57.908;16.490;2023-05-20T05:16:17;103167.94;;;10.12
12126;BMP180;6126;57.908;16.490;2023-05-20T05:18:43;103173.13;;;10.18
12126;BMP180;6126;57.908;16.490;2023-05-20T05:21:09;103181.84;;;10.26
12126;BMP180;6126;57.908;16.490;2023-05-20T05:23:35;103176.56;;;10.35
12126;BMP180;6126;57.908;16.490;2023-05-20T05:26:01;103179.13;;;10.44
12126;BMP180;6126;57.908;16.490;2023-05-20T05:28:27;103177.34;;;10.57
12126;BMP180;6126;57.908;16.490;2023-05-20T05:30:54;103172.00;;;10.72
12126;BMP180;6126;57.908;16.490;2023-05-20T05:33:23;103171.06;;;10.86
12126;BMP180;6126;57.908;16.490;2023-05-20T05:35:50;103177.09;;;10.97
12126;BMP180;6126;57.908;16.490;2023-05-20T05:38:15;103178.78;;;11.03
12126;BMP180;6126;57.908;16.490;2023-05-20T05:40:41;103181.38;;;11.06
12126;BMP180;6126;57.908;16.490;2023-05-20T05:43:07;103174.41;;;11.06
12126;BMP180;6126;57.908;16.490;2023-05-20T05:45:33;103172.66;;;11.08
12126;BMP180;6126;57.908;16.490;2023-05-20T05:47:59;103172.63;;;11.11
12126;BMP180;6126;57.908;16.490;2023-05-20T05:50:25;103170.88;;;11.11
12126;BMP180;6126;57.908;16.490;2023-05-20T05:52:51;103167.44;;;11.07
12126;BMP180;6126;57.908;16.490;2023-05-20T05:55:17;103170.09;;;10.98
12126;BMP180;6126;57.908;16.490;2023-05-20T05:57:43;103168.41;;;10.89
12126;BMP180;6126;57.908;16.490;2023-05-20T06:00:09;103171.91;;;10.85
12126;BMP180;6126;57.908;16.490;2023-05-20T06:02:35;103171.06;;;10.86
12126;BMP180;6126;57.908;16.490;2023-05-20T06:05:05;103169.28;;;10.90
12126;BMP180;6126;57.908;16.490;2023-05-20T06:07:31;103172.75;;;10.95
12126;BMP180;6126;57.908;16.490;2023-05-20T06:09:56;103170.06;;;11.04
12126;BMP180;6126;57.908;16.490;2023-05-20T06:12:23;103168.28;;;11.10
12126;BMP180;6126;57.908;16.490;2023-05-20T06:14:49;103176.97;;;11.13
12126;BMP180;6126;57.908;16.490;2023-05-20T06:17:15;103171.72;;;11.19
12126;BMP180;6126;57.908;16.490;2023-05-20T06:19:40;103177.75;;;11.26
12126;BMP180;6126;57.908;16.490;2023-05-20T06:22:06;103170.69;;;11.32
12126;BMP180;6126;57.908;16.490;2023-05-20T06:24:33;103174.13;;;11.40
12126;BMP180;6126;57.908;16.490;2023-05-20T06:26:59;103172.34;;;11.48
12126;BMP180;6126;57.908;16.490;2023-05-20T06:29:25;103161.84;;;11.54
12126;BMP180;6126;57.908;16.490;2023-05-20T06:31:51;103160.00;;;11.62
12126;BMP180;6126;57.908;16.490;2023-05-20T06:34:16;103156.47;;;11.67
12126;BMP180;6126;57.908;16.490;2023-05-20T06:36:42;103163.34;;;11.75
12126;BMP180;6126;57.908;16.490;2023-05-20T06:39:08;103163.28;;;11.84
12126;BMP180;6126;57.908;16.490;2023-05-20T06:41:40;103161.44;;;11.89
12126;BMP180;6126;57.908;16.490;2023-05-20T06:44:06;103167.47;;;11.97
12126;BMP180;6126;57.908;16.490;2023-05-20T06:46:33;103163.03;;;12.05
12126;BMP180;6126;57.908;16.490;2023-05-20T06:48:59;103172.53;;;12.16
12126;BMP180;6126;57.908;16.490;2023-05-20T06:51:26;103166.25;;;12.28
12126;BMP180;6126;57.908;16.490;2023-05-20T06:53:53;103162.63;;;12.37
12126;BMP180;6126;57.908;16.490;2023-05-20T06:56:19;103167.88;;;12.39
12126;BMP180;6126;57.908;16.490;2023-05-20T06:58:46;103166.13;;;12.38
12126;BMP180;6126;57.908;16.490;2023-05-20T07:01:12;103163.44;;;12.42
12126;BMP180;6126;57.908;16.490;2023-05-20T07:03:38;103169.56;;;12.41
12126;BMP180;6126;57.908;16.490;2023-05-20T07:06:04;103168.75;;;12.38
12126;BMP180;6126;57.908;16.490;2023-05-20T07:08:30;103169.66;;;12.35
12126;BMP180;6126;57.908;16.490;2023-05-20T07:10:56;103167.94;;;12.34
12126;BMP180;6126;57.908;16.490;2023-05-20T07:13:22;103170.50;;;12.36
12126;BMP180;6126;57.908;16.490;2023-05-20T07:15:49;103170.41;;;12.43
12126;BMP180;6126;57.908;16.490;2023-05-20T07:18:15;103162.44;;;12.52
12126;BMP180;6126;57.908;16.490;2023-05-20T07:20:41;103171.13;;;12.57
12126;BMP180;6126;57.908;16.490;2023-05-20T07:23:07;103173.66;;;12.62
12126;BMP180;6126;57.908;16.490;2023-05-20T07:25:33;103174.53;;;12.65
12126;BMP180;6126;57.908;16.490;2023-05-20T07:28:02;103167.44;;;12.70
12126;BMP180;6126;57.908;16.490;2023-05-20T07:30:28;103170.84;;;12.81
12126;BMP180;6126;57.908;16.490;2023-05-20T07:32:54;103162.75;;;12.93
12126;BMP180;6126;57.908;16.490;2023-05-20T07:35:20;103155.69;;;12.99
12126;BMP180;6126;57.908;16.490;2023-05-20T07:37:45;103149.47;;;13.04
12126;BMP180;6126;57.908;16.490;2023-05-20T07:40:12;103156.31;;;13.14
12126;BMP180;6126;57.908;16.490;2023-05-20T07:42:39;103152.50;;;13.33
12126;BMP180;6126;57.908;16.490;2023-05-20T07:45:05;103148.47;;;13.60
12126;BMP180;6126;57.908;16.490;2023-05-20T07:47:31;103149.84;;;13.82
12126;BMP180;6126;57.908;16.490;2023-05-20T07:49:57;103146.97;;;13.94
12126;BMP180;6126;57.908;16.490;2023-05-20T07:52:23;103139.91;;;13.96
12126;BMP180;6126;57.908;16.490;2023-05-20T07:54:49;103154.06;;;13.90
12126;BMP180;6126;57.908;16.490;2023-05-20T07:57:15;103149.72;;;13.88
12126;BMP180;6126;57.908;16.490;2023-05-20T07:59:41;103149.78;;;13.85
12126;BMP180;6126;57.908;16.490;2023-05-20T08:02:07;103144.34;;;13.94
12126;BMP180;6126;57.908;16.490;2023-05-20T08:04:34;103137.03;;;14.11
12126;BMP180;6126;57.908;16.490;2023-05-20T08:07:00;103149.06;;;14.23
12126;BMP180;6126;57.908;16.490;2023-05-20T08:09:26;103144.50;;;14.31
12126;BMP180;6126;57.908;16.490;2023-05-20T08:11:54;103139.75;;;14.47
12126;BMP180;6126;57.908;16.490;2023-05-20T08:14:20;103137.63;;;14.65
12126;BMP180;6126;57.908;16.490;2023-05-20T08:16:46;103136.38;;;14.80
12126;BMP180;6126;57.908;16.490;2023-05-20T08:19:12;103128.94;;;14.96
12126;BMP180;6126;57.908;16.490;2023-05-20T08:21:38;103122.53;;;15.07
12126;BMP180;6126;57.908;16.490;2023-05-20T08:24:04;103122.34;;;15.16
12126;BMP180;6126;57.908;16.490;2023-05-20T08:26:30;103115.03;;;15.27
12126;BMP180;6126;57.908;16.490;2023-05-20T08:28:56;103120.00;;;15.39
12126;BMP180;6126;57.908;16.490;2023-05-20T08:31:22;103117.19;;;15.46
12126;BMP180;6126;57.908;16.490;2023-05-20T08:33:48;103126.78;;;15.48
12126;BMP180;6126;57.908;16.490;2023-05-20T08:36:14;103118.78;;;15.51
12126;BMP180;6126;57.908;16.490;2023-05-20T08:38:40;103122.19;;;15.55
12126;BMP180;6126;57.908;16.490;2023-05-20T08:41:06;103123.97;;;15.54
12126;BMP180;6126;57.908;16.490;2023-05-20T08:43:32;103124.81;;;15.56
12126;BMP180;6126;57.908;16.490;2023-05-20T08:45:59;103122.19;;;15.55
12126;BMP180;6126;57.908;16.490;2023-05-20T08:48:29;103114.41;;;15.50
12126;BMP180;6126;57.908;16.490;2023-05-20T08:50:56;103119.84;;;15.44
12126;BMP180;6126;57.908;16.490;2023-05-20T08:53:22;103117.19;;;15.46
12126;BMP180;6126;57.908;16.490;2023-05-20T08:55:59;103118.59;;;15.59
12126;BMP180;6126;57.908;16.490;2023-05-20T08:58:31;103114.56;;;15.77
12126;BMP180;6126;57.908;16.490;2023-05-20T09:01:00;103102.66;;;15.93
12126;BMP180;6126;57.908;16.490;2023-05-20T09:03:27;103103.03;;;16.10
12126;BMP180;6126;57.908;16.490;2023-05-20T09:06:02;103099.97;;;16.26
12126;BMP180;6126;57.908;16.490;2023-05-20T09:08:29;103100.41;;;16.40
12126;BMP180;6126;57.908;16.490;2023-05-20T09:10:56;103093.75;;;16.56
12126;BMP180;6126;57.908;16.490;2023-05-20T09:13:23;103097.97;;;16.63
12126;BMP180;6126;57.908;16.490;2023-05-20T09:15:49;103096.16;;;16.63
12126;BMP180;6126;57.908;16.490;2023-05-20T09:18:15;103093.56;;;16.62
12126;BMP180;6126;57.908;16.490;2023-05-20T09:20:41;103091.44;;;16.72
12126;BMP180;6126;57.908;16.490;2023-05-20T09:23:09;103083.19;;;16.83
12126;BMP180;6126;57.908;16.490;2023-05-20T09:25:36;103081.22;;;16.89
12126;BMP180;6126;57.908;16.490;2023-05-20T09:28:05;103082.69;;;16.97
12126;BMP180;6126;57.908;16.490;2023-05-20T09:30:32;103080.81;;;17.01
12126;BMP180;6126;57.908;16.490;2023-05-20T09:33:00;103070.06;;;17.07
12126;BMP180;6126;57.908;16.490;2023-05-20T09:35:28;103072.50;;;17.14
12126;BMP180;6126;57.908;16.490;2023-05-20T09:37:56;103061.84;;;17.16
12126;BMP180;6126;57.908;16.490;2023-05-20T09:40:26;103071.53;;;17.17
12126;BMP180;6126;57.908;16.490;2023-05-20T09:43:01;103064.81;;;17.32
12126;BMP180;6126;57.908;16.490;2023-05-20T09:45:28;103064.50;;;17.40
12126;BMP180;6126;57.908;16.490;2023-05-20T09:47:55;103059.06;;;17.44
12126;BMP180;6126;57.908;16.490;2023-05-20T09:50:23;103070.22;;;17.54
12126;BMP180;6126;57.908;16.490;2023-05-20T09:52:53;103058.97;;;17.71
12126;BMP180;6126;57.908;16.490;2023-05-20T09:55:23;103053.88;;;17.90
12126;BMP180;6126;57.908;16.490;2023-05-20T09:57:49;103053.41;;;18.01
12126;BMP180;6126;57.908;16.490;2023-05-20T10:00:16;103054.72;;;18.14
12126;BMP180;6126;57.908;16.490;2023-05-20T10:03:00;103053.38;;;18.25
12126;BMP180;6126;57.908;16.490;2023-05-20T10:05:35;103050.31;;;18.36
12126;BMP180;6126;57.908;16.490;2023-05-20T10:08:46;103045.34;;;18.50
12126;BMP180;6126;57.908;16.490;2023-05-20T10:11:34;103050.91;;;18.65
12126;BMP180;6126;57.908;16.490;2023-05-20T10:16:52;103047.97;;;18.93
12126;BMP180;6126;57.908;16.490;2023-05-20T10:19:48;103045.31;;;18.93
12126;BMP180;6126;57.908;16.490;2023-05-20T10:22:25;103036.50;;;18.93
12126;BMP180;6126;57.908;16.490;2023-05-20T10:24:59;103040.88;;;18.94
12126;BMP180;6126;57.908;16.490;2023-05-20T10:27:25;103035.59;;;18.94
12126;BMP180;6126;57.908;16.490;2023-05-20T10:29:56;103033.66;;;18.97
12126;BMP180;6126;57.908;16.490;2023-05-20T10:32:28;103032.81;;;18.97
12126;BMP180;6126;57.908;16.490;2023-05-20T10:35:08;103020.28;;;19.00
12126;BMP180;6126;57.908;16.490;2023-05-20T10:37:45;103017.31;;;19.08
12126;BMP180;6126;57.908;16.490;2023-05-20T10:40:15;103016.31;;;19.10
12126;BMP180;6126;57.908;16.490;2023-05-20T10:42:42;103012.06;;;19.06
12126;BMP180;6126;57.908;16.490;2023-05-20T10:45:10;103014.06;;;19.01
12126;BMP180;6126;57.908;16.490;2023-05-20T10:47:41;103012.41;;;18.99
12126;BMP180;6126;57.908;16.490;2023-05-20T10:50:24;103009.00;;;18.95
12126;BMP180;6126;57.908;16.490;2023-05-20T10:52:51;103010.09;;;18.90
12126;BMP180;6126;57.908;16.490;2023-05-20T10:55:21;103013.00;;;18.84
12126;BMP180;6126;57.908;16.490;2023-05-20T10:57:47;103014.84;;;18.82
12126;BMP180;6126;57.908;16.490;2023-05-20T11:00:15;103004.50;;;18.76
12126;BMP180;6126;57.908;16.490;2023-05-20T11:02:41;103007.16;;;18.76
12126;BMP180;6126;57.908;16.490;2023-05-20T11:05:12;103008.81;;;18.79
12126;BMP180;6126;57.908;16.490;2023-05-20T11:07:39;102998.81;;;18.85
12126;BMP180;6126;57.908;16.490;2023-05-20T11:10:08;102991.53;;;18.90
12126;BMP180;6126;57.908;16.490;2023-05-20T11:12:34;103002.97;;;18.92
12126;BMP180;6126;57.908;16.490;2023-05-20T11:15:01;102988.88;;;18.91
12126;BMP180;6126;57.908;16.490;2023-05-20T11:17:27;102995.81;;;18.94
12126;BMP180;6126;57.908;16.490;2023-05-20T11:19:53;102990.44;;;18.95
12126;BMP180;6126;57.908;16.490;2023-05-20T11:22:19;102981.88;;;18.89
12126;BMP180;6126;57.908;16.490;2023-05-20T11:24:45;102983.03;;;18.82
12126;BMP180;6126;57.908;16.490;2023-05-20T11:27:11;102979.03;;;18.72
12126;BMP180;6126;57.908;16.490;2023-05-20T11:29:38;102981.41;;;18.58
12126;BMP180;6126;57.908;16.490;2023-05-20T11:32:06;102982.56;;;18.52
12126;BMP180;6126;57.908;16.490;2023-05-20T11:34:36;102975.00;;;18.43
12126;BMP180;6126;57.908;16.490;2023-05-20T11:37:09;102969.03;;;18.38
12126;BMP180;6126;57.908;16.490;2023-05-20T11:39:36;102965.56;;;18.36
12126;BMP180;6126;57.908;16.490;2023-05-20T11:42:03;102978.22;;;18.29
12126;BMP180;6126;57.908;16.490;2023-05-20T11:44:30;102968.06;;;18.19
12126;BMP180;6126;57.908;16.490;2023-05-20T11:47:01;102967.94;;;18.22
12126;BMP180;6126;57.908;16.490;2023-05-20T11:49:27;102963.47;;;18.22
12126;BMP180;6126;57.908;16.490;2023-05-20T11:51:53;102964.16;;;18.27
12126;BMP180;6126;57.908;16.490;2023-05-20T11:54:21;102968.22;;;18.36
12126;BMP180;6126;57.908;16.490;2023-05-20T11:56:49;102967.31;;;18.37
12126;BMP180;6126;57.908;16.490;2023-05-20T11:59:15;102963.88;;;18.35
12126;BMP180;6126;57.908;16.490;2023-05-20T12:01:41;102956.97;;;18.31
12126;BMP180;6126;57.908;16.490;2023-05-20T12:04:11;102951.66;;;18.31
12126;BMP180;6126;57.908;16.490;2023-05-20T12:06:40;102951.66;;;18.31
12126;BMP180;6126;57.908;16.490;2023-05-20T12:09:09;102943.00;;;18.27
12126;BMP180;6126;57.908;16.490;2023-05-20T12:11:36;102946.50;;;18.28
12126;BMP180;6126;57.908;16.490;2023-05-20T12:14:06;102944.53;;;18.33
12126;BMP180;6126;57.908;16.490;2023-05-20T12:16:34;102941.84;;;18.34
12126;BMP180;6126;57.908;16.490;2023-05-20T12:19:00;102940.97;;;18.34
12126;BMP180;6126;57.908;16.490;2023-05-20T12:21:29;102939.22;;;18.33
12126;BMP180;6126;57.908;16.490;2023-05-20T12:23:57;102939.31;;;18.31
12126;BMP180;6126;57.908;16.490;2023-05-20T12:26:25;102938.41;;;18.31
12126;BMP180;6126;57.908;16.490;2023-05-20T12:28:53;102937.66;;;18.29
12126;BMP180;6126;57.908;16.490;2023-05-20T12:31:19;102940.28;;;18.29
12126;BMP180;6126;57.908;16.490;2023-05-20T12:33:45;102937.78;;;18.26
12126;BMP180;6126;57.908;16.490;2023-05-20T12:36:12;102935.03;;;18.27
12126;BMP180;6126;57.908;16.490;2023-05-20T12:38:38;102933.22;;;18.29
12126;BMP180;6126;57.908;16.490;2023-05-20T12:41:04;102928.75;;;18.30
12126;BMP180;6126;57.908;16.490;2023-05-20T12:43:30;102931.66;;;18.24
12126;BMP180;6126;57.908;16.490;2023-05-20T12:45:56;102934.56;;;18.18
12126;BMP180;6126;57.908;16.490;2023-05-20T12:48:22;102925.94;;;18.13
12126;BMP180;6126;57.908;16.490;2023-05-20T12:50:48;102923.97;;;18.18
12126;BMP180;6126;57.908;16.490;2023-05-20T12:53:14;102924.88;;;18.17
12126;BMP180;6126;57.908;16.490;2023-05-20T12:55:39;102930.19;;;18.17
12126;BMP180;6126;57.908;16.490;2023-05-20T12:58:05;102918.78;;;18.15
12126;BMP180;6126;57.908;16.490;2023-05-20T13:00:34;102922.41;;;18.13
12126;BMP180;6126;57.908;16.490;2023-05-20T13:03:00;102915.25;;;18.16
12126;BMP180;6126;57.908;16.490;2023-05-20T13:05:26;102905.50;;;18.17
12126;BMP180;6126;57.908;16.490;2023-05-20T13:07:52;102917.94;;;18.15
12126;BMP180;6126;57.908;16.490;2023-05-20T13:10:18;102913.81;;;18.08
12126;BMP180;6126;57.908;16.490;2023-05-20T13:12:44;102908.91;;;17.97
12126;BMP180;6126;57.908;16.490;2023-05-20T13:15:12;102898.81;;;17.86
12126;BMP180;6126;57.908;16.490;2023-05-20T13:17:40;102891.25;;;17.77
12126;BMP180;6126;57.908;16.490;2023-05-20T13:20:08;102893.06;;;17.75
12126;BMP180;6126;57.908;16.490;2023-05-20T13:22:34;102892.13;;;17.76
12126;BMP180;6126;57.908;16.490;2023-05-20T13:25:00;102892.22;;;17.74
12126;BMP180;6126;57.908;16.490;2023-05-20T13:27:26;102881.63;;;17.74
12126;BMP180;6126;57.908;16.490;2023-05-20T13:29:52;102883.41;;;17.74
12126;BMP180;6126;57.908;16.490;2023-05-20T13:32:18;102881.56;;;17.76
12126;BMP180;6126;57.908;16.490;2023-05-20T13:34:44;102874.56;;;17.75
12126;BMP180;6126;57.908;16.490;2023-05-20T13:37:10;102869.94;;;17.80
12126;BMP180;6126;57.908;16.490;2023-05-20T13:39:36;102871.66;;;17.81
12126;BMP180;6126;57.908;16.490;2023-05-20T13:42:02;102864.59;;;17.81
12126;BMP180;6126;57.908;16.490;2023-05-20T13:44:29;102864.28;;;17.89
12126;BMP180;6126;57.908;16.490;2023-05-20T13:46:55;102870.00;;;17.99
12126;BMP180;6126;57.908;16.490;2023-05-20T13:49:21;102873.00;;;18.13
12126;BMP180;6126;57.908;16.490;2023-05-20T13:51:47;102868.56;;;18.14
12126;BMP180;6126;57.908;16.490;2023-05-20T13:54:13;102873.22;;;18.07
12126;BMP180;6126;57.908;16.490;2023-05-20T13:56:39;102870.00;;;17.99
12126;BMP180;6126;57.908;16.490;2023-05-20T13:59:05;102867.44;;;17.98
12126;BMP180;6126;57.908;16.490;2023-05-20T14:01:31;102865.69;;;17.97
12126;BMP180;6126;57.908;16.490;2023-05-20T14:04:00;102861.63;;;18.11